Malmesbury, South Africa
Current Conditions -  °F | °C
As of 12:00 PM on Monday 20 Oct 2014 (Local Time) from FACT Reporting Station
Clear Clear  
Wind Chill: 81°   Ceiling: Unl
Heat Index: 81°   Visibility: 6mi
Dew Point: 50°   Wind: 6mph
Humidity: 34%   Direction: 200°SSW
Pressure: 29.97"   Gusts: NA
Location:  33.45°S, 18.72°E
Report Text: FACT 201000Z 20005KT 080V240 CAVOK 27/10 Q1015 NOSIG
Loading
Personal Weather Stations






























Interactive Weather Map
Tropical Storm Tracking
New forecast layout! Learn more

10-Day Weather Forecast

Advertisements
Track Severe Weather on mobile